sensor_id;sensor_type;location;lat;lon;timestamp;pressure;altitude;pressure_sealevel;temperature;humidity
70053;BME280;57398;52.032;4.376;2024-02-04T00:00:36;100835.69;;;9.09;nan
70053;BME280;57398;52.032;4.376;2024-02-04T00:03:26;100831.09;;;9.11;nan
70053;BME280;57398;52.032;4.376;2024-02-04T00:06:14;100828.94;;;9.08;nan
70053;BME280;57398;52.032;4.376;2024-02-04T00:09:03;100811.38;;;9.10;nan
70053;BME280;57398;52.032;4.376;2024-02-04T00:11:51;100806.38;;;9.09;nan
70053;BME280;57398;52.032;4.376;2024-02-04T00:14:39;100803.44;;;9.05;nan
70053;BME280;57398;52.032;4.376;2024-02-04T00:17:28;100804.44;;;9.04;nan
70053;BME280;57398;52.032;4.376;2024-02-04T00:20:19;100790.28;;;9.00;nan
70053;BME280;57398;52.032;4.376;2024-02-04T00:23:08;100793.91;;;8.99;nan
70053;BME280;57398;52.032;4.376;2024-02-04T00:25:56;100795.69;;;8.98;nan
70053;BME280;57398;52.032;4.376;2024-02-04T00:28:44;100803.25;;;9.00;nan
70053;BME280;57398;52.032;4.376;2024-02-04T00:31:32;100795.69;;;8.98;nan
70053;BME280;57398;52.032;4.376;2024-02-04T00:34:20;100786.50;;;9.02;nan
70053;BME280;57398;52.032;4.376;2024-02-04T00:37:10;100783.53;;;8.99;nan
70053;BME280;57398;52.032;4.376;2024-02-04T00:39:58;100819.22;;;8.97;nan
70053;BME280;57398;52.032;4.376;2024-02-04T00:42:46;100770.63;;;8.92;nan
70053;BME280;57398;52.032;4.376;2024-02-04T00:45:34;100763.44;;;8.94;nan
70053;BME280;57398;52.032;4.376;2024-02-04T00:48:23;100752.44;;;8.99;nan
70053;BME280;57398;52.032;4.376;2024-02-04T00:51:11;100746.47;;;8.98;nan
70053;BME280;57398;52.032;4.376;2024-02-04T00:54:01;100747.06;;;9.00;nan
70053;BME280;57398;52.032;4.376;2024-02-04T00:56:49;100748.44;;;9.03;nan
70053;BME280;57398;52.032;4.376;2024-02-04T00:59:37;100740.88;;;9.01;nan
70053;BME280;57398;52.032;4.376;2024-02-04T01:02:25;100749.22;;;9.04;nan
70053;BME280;57398;52.032;4.376;2024-02-04T01:05:13;100741.88;;;9.00;nan
70053;BME280;57398;52.032;4.376;2024-02-04T01:08:01;100748.28;;;8.98;nan
70053;BME280;57398;52.032;4.376;2024-02-04T01:10:51;100746.63;;;9.04;nan
70053;BME280;57398;52.032;4.376;2024-02-04T01:13:39;100752.22;;;9.07;nan
70053;BME280;57398;52.032;4.376;2024-02-04T01:16:27;100810.34;;;9.11;nan
70053;BME280;57398;52.032;4.376;2024-02-04T01:19:16;100761.34;;;9.10;nan
70053;BME280;57398;52.032;4.376;2024-02-04T01:24:53;100754.84;;;9.00;nan
70053;BME280;57398;52.032;4.376;2024-02-04T01:27:42;100770.53;;;9.06;nan
70053;BME280;57398;52.032;4.376;2024-02-04T01:30:30;100773.59;;;8.96;nan
70053;BME280;57398;52.032;4.376;2024-02-04T01:33:19;100773.63;;;8.89;nan
70053;BME280;57398;52.032;4.376;2024-02-04T01:36:07;100777.63;;;8.85;nan
70053;BME280;57398;52.032;4.376;2024-02-04T01:38:55;100783.63;;;8.79;nan
70053;BME280;57398;52.032;4.376;2024-02-04T01:41:44;100794.44;;;8.76;nan
70053;BME280;57398;52.032;4.376;2024-02-04T01:44:34;100786.88;;;8.68;nan
70053;BME280;57398;52.032;4.376;2024-02-04T01:47:22;100784.91;;;8.63;nan
70053;BME280;57398;52.032;4.376;2024-02-04T01:50:10;100794.31;;;8.57;nan
70053;BME280;57398;52.032;4.376;2024-02-04T01:52:59;100780.56;;;8.57;nan
70053;BME280;57398;52.032;4.376;2024-02-04T01:55:47;100788.13;;;8.52;nan
70053;BME280;57398;52.032;4.376;2024-02-04T01:58:36;100794.53;;;8.49;nan
70053;BME280;57398;52.032;4.376;2024-02-04T02:01:26;100801.50;;;8.49;nan
70053;BME280;57398;52.032;4.376;2024-02-04T02:04:15;100797.13;;;8.49;nan
70053;BME280;57398;52.032;4.376;2024-02-04T02:07:04;100807.47;;;8.49;nan
70053;BME280;57398;52.032;4.376;2024-02-04T02:09:54;100818.41;;;8.51;nan
70053;BME280;57398;52.032;4.376;2024-02-04T02:12:47;100809.88;;;8.51;nan
70053;BME280;57398;52.032;4.376;2024-02-04T02:15:40;100806.25;;;8.52;nan
70053;BME280;57398;52.032;4.376;2024-02-04T02:18:37;100806.84;;;8.54;nan
70053;BME280;57398;52.032;4.376;2024-02-04T02:21:43;100809.06;;;8.50;nan
70053;BME280;57398;52.032;4.376;2024-02-04T02:27:23;100792.75;;;8.50;nan
70053;BME280;57398;52.032;4.376;2024-02-04T02:30:12;100813.66;;;8.48;nan
70053;BME280;57398;52.032;4.376;2024-02-04T02:33:00;100793.75;;;8.42;nan
70053;BME280;57398;52.032;4.376;2024-02-04T02:35:54;100787.38;;;8.45;nan
70053;BME280;57398;52.032;4.376;2024-02-04T02:38:51;100782.19;;;8.45;nan
70053;BME280;57398;52.032;4.376;2024-02-04T02:41:42;100784.59;;;8.46;nan
70053;BME280;57398;52.032;4.376;2024-02-04T02:44:31;100799.34;;;8.46;nan
70053;BME280;57398;52.032;4.376;2024-02-04T02:47:21;100791.56;;;8.46;nan
70053;BME280;57398;52.032;4.376;2024-02-04T02:50:10;100796.53;;;8.47;nan
70053;BME280;57398;52.032;4.376;2024-02-04T02:52:58;100798.94;;;8.42;nan
70053;BME280;57398;52.032;4.376;2024-02-04T02:55:47;100804.31;;;8.41;nan
70053;BME280;57398;52.032;4.376;2024-02-04T02:58:36;100815.47;;;8.41;nan
70053;BME280;57398;52.032;4.376;2024-02-04T03:01:24;100802.53;;;8.41;nan
70053;BME280;57398;52.032;4.376;2024-02-04T03:04:13;100791.38;;;8.41;nan
70053;BME280;57398;52.032;4.376;2024-02-04T03:09:49;100795.75;;;8.40;nan
70053;BME280;57398;52.032;4.376;2024-02-04T03:12:37;100790.97;;;8.37;nan
70053;BME280;57398;52.032;4.376;2024-02-04T03:15:27;100796.94;;;8.31;nan
70053;BME280;57398;52.032;4.376;2024-02-04T03:21:03;100803.94;;;8.24;nan
70053;BME280;57398;52.032;4.376;2024-02-04T03:26:39;100784.63;;;8.19;nan
70053;BME280;57398;52.032;4.376;2024-02-04T03:29:27;100793.78;;;8.22;nan
70053;BME280;57398;52.032;4.376;2024-02-04T03:32:17;100810.75;;;8.18;nan
70053;BME280;57398;52.032;4.376;2024-02-04T03:35:05;100817.69;;;8.17;nan
70053;BME280;57398;52.032;4.376;2024-02-04T03:37:53;100830.22;;;8.21;nan
70053;BME280;57398;52.032;4.376;2024-02-04T03:40:42;100819.47;;;8.24;nan
70053;BME280;57398;52.032;4.376;2024-02-04T03:43:30;100811.72;;;8.24;nan
70053;BME280;57398;52.032;4.376;2024-02-04T03:46:18;100818.50;;;8.25;nan
70053;BME280;57398;52.032;4.376;2024-02-04T03:49:08;100822.47;;;8.27;nan
70053;BME280;57398;52.032;4.376;2024-02-04T03:51:56;100830.41;;;8.26;nan
70053;BME280;57398;52.032;4.376;2024-02-04T03:54:44;100825.66;;;8.23;nan
70053;BME280;57398;52.032;4.376;2024-02-04T03:57:32;100839.38;;;8.23;nan
70053;BME280;57398;52.032;4.376;2024-02-04T04:00:21;100815.69;;;8.26;nan
70053;BME280;57398;52.032;4.376;2024-02-04T04:03:09;100829.03;;;8.30;nan
70053;BME280;57398;52.032;4.376;2024-02-04T04:05:59;100817.47;;;8.32;nan
70053;BME280;57398;52.032;4.376;2024-02-04T04:08:47;100795.38;;;8.30;nan
70053;BME280;57398;52.032;4.376;2024-02-04T04:11:35;100783.63;;;8.27;nan
70053;BME280;57398;52.032;4.376;2024-02-04T04:14:23;100786.63;;;8.24;nan
70053;BME280;57398;52.032;4.376;2024-02-04T04:17:12;100779.88;;;8.23;nan
70053;BME280;57398;52.032;4.376;2024-02-04T04:20:00;100795.38;;;8.23;nan
70053;BME280;57398;52.032;4.376;2024-02-04T04:22:49;100803.34;;;8.22;nan
70053;BME280;57398;52.032;4.376;2024-02-04T04:25:38;100799.00;;;8.15;nan
70053;BME280;57398;52.032;4.376;2024-02-04T04:28:26;100801.00;;;8.13;nan
70053;BME280;57398;52.032;4.376;2024-02-04T04:31:14;100804.56;;;8.12;nan
70053;BME280;57398;52.032;4.376;2024-02-04T04:34:03;100799.81;;;8.09;nan
70053;BME280;57398;52.032;4.376;2024-02-04T04:36:51;100801.00;;;8.07;nan
70053;BME280;57398;52.032;4.376;2024-02-04T04:39:41;100801.78;;;8.07;nan
70053;BME280;57398;52.032;4.376;2024-02-04T04:42:29;100797.59;;;8.06;nan
70053;BME280;57398;52.032;4.376;2024-02-04T04:45:17;100807.94;;;8.06;nan
70053;BME280;57398;52.032;4.376;2024-02-04T04:48:06;100802.78;;;8.06;nan
70053;BME280;57398;52.032;4.376;2024-02-04T04:50:56;100789.66;;;8.08;nan
70053;BME280;57398;52.032;4.376;2024-02-04T04:53:44;100798.19;;;8.08;nan
70053;BME280;57398;52.032;4.376;2024-02-04T04:56:39;100785.25;;;8.08;nan
70053;BME280;57398;52.032;4.376;2024-02-04T04:59:29;100770.75;;;8.07;nan
70053;BME280;57398;52.032;4.376;2024-02-04T05:05:05;100798.63;;;8.05;nan
70053;BME280;57398;52.032;4.376;2024-02-04T05:07:54;100786.69;;;8.04;nan
70053;BME280;57398;52.032;4.376;2024-02-04T05:10:42;100781.50;;;8.04;nan
70053;BME280;57398;52.032;4.376;2024-02-04T05:13:31;100764.97;;;8.05;nan
70053;BME280;57398;52.032;4.376;2024-02-04T05:16:20;100803.59;;;8.07;nan
70053;BME280;57398;52.032;4.376;2024-02-04T05:19:08;100731.78;;;8.02;nan
70053;BME280;57398;52.032;4.376;2024-02-04T05:21:56;100741.88;;;8.04;nan
70053;BME280;57398;52.032;4.376;2024-02-04T05:24:44;100712.47;;;7.98;nan
70053;BME280;57398;52.032;4.376;2024-02-04T05:27:32;100721.63;;;8.01;nan
70053;BME280;57398;52.032;4.376;2024-02-04T05:30:22;100717.44;;;8.00;nan
70053;BME280;57398;52.032;4.376;2024-02-04T05:33:13;100699.91;;;8.02;nan
70053;BME280;57398;52.032;4.376;2024-02-04T05:36:02;100714.88;;;8.00;nan
70053;BME280;57398;52.032;4.376;2024-02-04T05:38:50;100700.31;;;8.05;nan
70053;BME280;57398;52.032;4.376;2024-02-04T05:41:38;100677.41;;;8.09;nan
70053;BME280;57398;52.032;4.376;2024-02-04T05:44:27;100668.03;;;8.14;nan
70053;BME280;57398;52.032;4.376;2024-02-04T05:47:16;100655.69;;;8.16;nan
70053;BME280;57398;52.032;4.376;2024-02-04T05:50:06;100640.94;;;8.17;nan
70053;BME280;57398;52.032;4.376;2024-02-04T05:52:54;100653.25;;;8.22;nan
70053;BME280;57398;52.032;4.376;2024-02-04T05:55:42;100642.53;;;8.25;nan
70053;BME280;57398;52.032;4.376;2024-02-04T05:58:31;100660.41;;;8.26;nan
70053;BME280;57398;52.032;4.376;2024-02-04T06:01:19;100639.50;;;8.28;nan
70053;BME280;57398;52.032;4.376;2024-02-04T06:04:09;100632.94;;;8.32;nan
70053;BME280;57398;52.032;4.376;2024-02-04T06:06:57;100636.09;;;8.34;nan
70053;BME280;57398;52.032;4.376;2024-02-04T06:09:45;100622.94;;;8.35;nan
70053;BME280;57398;52.032;4.376;2024-02-04T06:12:33;100622.34;;;8.40;nan
70053;BME280;57398;52.032;4.376;2024-02-04T06:15:21;100609.78;;;8.44;nan
70053;BME280;57398;52.032;4.376;2024-02-04T06:18:10;100608.97;;;8.50;nan
70053;BME280;57398;52.032;4.376;2024-02-04T06:20:59;100602.97;;;8.49;nan
70053;BME280;57398;52.032;4.376;2024-02-04T06:23:48;100606.19;;;8.45;nan
70053;BME280;57398;52.032;4.376;2024-02-04T06:26:37;100611.91;;;8.53;nan
70053;BME280;57398;52.032;4.376;2024-02-04T06:29:26;100602.13;;;8.55;nan
70053;BME280;57398;52.032;4.376;2024-02-04T06:32:14;100602.91;;;8.56;nan
70053;BME280;57398;52.032;4.376;2024-02-04T06:35:02;100602.72;;;8.57;nan
70053;BME280;57398;52.032;4.376;2024-02-04T06:37:52;100604.03;;;8.67;nan
70053;BME280;57398;52.032;4.376;2024-02-04T06:40:40;100598.28;;;8.65;nan
70053;BME280;57398;52.032;4.376;2024-02-04T06:43:28;100591.69;;;8.69;nan
70053;BME280;57398;52.032;4.376;2024-02-04T06:46:25;100587.09;;;8.71;nan
70053;BME280;57398;52.032;4.376;2024-02-04T06:49:13;100593.00;;;8.78;nan
70053;BME280;57398;52.032;4.376;2024-02-04T06:52:05;100593.59;;;8.80;nan
70053;BME280;57398;52.032;4.376;2024-02-04T06:54:54;100575.50;;;8.73;nan
70053;BME280;57398;52.032;4.376;2024-02-04T06:57:43;100580.69;;;8.73;nan
70053;BME280;57398;52.032;4.376;2024-02-04T07:00:31;100584.50;;;8.71;nan
70053;BME280;57398;52.032;4.376;2024-02-04T07:03:19;100594.91;;;8.64;nan
70053;BME280;57398;52.032;4.376;2024-02-04T07:06:07;100576.41;;;8.60;nan
70053;BME280;57398;52.032;4.376;2024-02-04T07:08:55;100588.16;;;8.56;nan
70053;BME280;57398;52.032;4.376;2024-02-04T07:11:45;100577.06;;;8.49;nan
70053;BME280;57398;52.032;4.376;2024-02-04T07:14:33;100599.16;;;8.52;nan
70053;BME280;57398;52.032;4.376;2024-02-04T07:17:21;100575.22;;;8.56;nan
70053;BME280;57398;52.032;4.376;2024-02-04T07:20:10;100585.19;;;8.59;nan
70053;BME280;57398;52.032;4.376;2024-02-04T07:22:58;100585.03;;;8.54;nan
70053;BME280;57398;52.032;4.376;2024-02-04T07:25:46;100598.13;;;8.59;nan
70053;BME280;57398;52.032;4.376;2024-02-04T07:28:36;100589.34;;;8.60;nan
70053;BME280;57398;52.032;4.376;2024-02-04T07:31:24;100586.13;;;8.65;nan
70053;BME280;57398;52.032;4.376;2024-02-04T07:34:13;100594.28;;;8.69;nan
70053;BME280;57398;52.032;4.376;2024-02-04T07:37:01;100646.66;;;8.71;nan
70053;BME280;57398;52.032;4.376;2024-02-04T07:39:49;100587.66;;;8.73;nan
70053;BME280;57398;52.032;4.376;2024-02-04T07:42:38;100574.53;;;8.68;nan
70053;BME280;57398;52.032;4.376;2024-02-04T07:45:27;100591.03;;;8.73;nan
70053;BME280;57398;52.032;4.376;2024-02-04T07:48:16;100592.63;;;8.74;nan
70053;BME280;57398;52.032;4.376;2024-02-04T07:51:04;100576.44;;;8.79;nan
70053;BME280;57398;52.032;4.376;2024-02-04T07:53:52;100585.81;;;8.80;nan
70053;BME280;57398;52.032;4.376;2024-02-04T07:56:40;100595.94;;;8.81;nan
70053;BME280;57398;52.032;4.376;2024-02-04T07:59:28;100635.38;;;8.84;nan
70053;BME280;57398;52.032;4.376;2024-02-04T08:02:18;100587.53;;;8.86;nan
70053;BME280;57398;52.032;4.376;2024-02-04T08:05:06;100588.69;;;8.90;nan
70053;BME280;57398;52.032;4.376;2024-02-04T08:07:55;100604.47;;;8.89;nan
70053;BME280;57398;52.032;4.376;2024-02-04T08:10:43;100619.19;;;8.88;nan
70053;BME280;57398;52.032;4.376;2024-02-04T08:13:31;100604.81;;;8.92;nan
70053;BME280;57398;52.032;4.376;2024-02-04T08:16:20;100613.97;;;8.95;nan
70053;BME280;57398;52.032;4.376;2024-02-04T08:19:09;100619.31;;;9.00;nan
70053;BME280;57398;52.032;4.376;2024-02-04T08:21:58;100618.09;;;9.02;nan
70053;BME280;57398;52.032;4.376;2024-02-04T08:24:47;100627.00;;;9.07;nan
70053;BME280;57398;52.032;4.376;2024-02-04T08:27:35;100622.22;;;9.10;nan
70053;BME280;57398;52.032;4.376;2024-02-04T08:30:23;100614.00;;;9.13;nan
70053;BME280;57398;52.032;4.376;2024-02-04T08:33:12;100615.16;;;9.17;nan
70053;BME280;57398;52.032;4.376;2024-02-04T08:36:02;100608.19;;;9.18;nan
70053;BME280;57398;52.032;4.376;2024-02-04T08:38:52;100611.50;;;9.25;nan
70053;BME280;57398;52.032;4.376;2024-02-04T08:44:28;100624.19;;;9.33;nan
70053;BME280;57398;52.032;4.376;2024-02-04T08:47:24;100633.78;;;9.33;nan
70053;BME280;57398;52.032;4.376;2024-02-04T08:50:12;100640.47;;;9.40;nan
70053;BME280;57398;52.032;4.376;2024-02-04T08:53:03;100639.47;;;9.41;nan
70053;BME280;57398;52.032;4.376;2024-02-04T08:58:39;100670.50;;;9.48;nan
70053;BME280;57398;52.032;4.376;2024-02-04T09:01:27;100662.50;;;9.50;nan
70053;BME280;57398;52.032;4.376;2024-02-04T09:04:16;100649.34;;;9.51;nan
70053;BME280;57398;52.032;4.376;2024-02-04T09:07:04;100671.44;;;9.54;nan
70053;BME280;57398;52.032;4.376;2024-02-04T09:09:54;100661.88;;;9.54;nan
70053;BME280;57398;52.032;4.376;2024-02-04T09:12:42;100649.09;;;9.53;nan
70053;BME280;57398;52.032;4.376;2024-02-04T09:15:31;100627.94;;;9.56;nan
70053;BME280;57398;52.032;4.376;2024-02-04T09:18:19;100712.56;;;9.50;nan
70053;BME280;57398;52.032;4.376;2024-02-04T09:21:07;100610.00;;;9.54;nan
70053;BME280;57398;52.032;4.376;2024-02-04T09:23:56;100584.28;;;9.53;nan
70053;BME280;57398;52.032;4.376;2024-02-04T09:26:46;100603.88;;;9.49;nan
70053;BME280;57398;52.032;4.376;2024-02-04T09:29:34;100631.31;;;9.38;nan
70053;BME280;57398;52.032;4.376;2024-02-04T09:32:22;100652.75;;;9.27;nan
70053;BME280;57398;52.032;4.376;2024-02-04T09:35:10;100685.38;;;9.09;nan
70053;BME280;57398;52.032;4.376;2024-02-04T09:37:59;100720.94;;;9.02;nan
70053;BME280;57398;52.032;4.376;2024-02-04T09:40:47;100748.91;;;8.93;nan
70053;BME280;57398;52.032;4.376;2024-02-04T09:43:38;100749.69;;;8.94;nan
70053;BME280;57398;52.032;4.376;2024-02-04T09:46:27;100784.34;;;8.93;nan
70053;BME280;57398;52.032;4.376;2024-02-04T09:49:15;100782.59;;;8.93;nan
70053;BME280;57398;52.032;4.376;2024-02-04T09:52:07;100786.16;;;8.92;nan
70053;BME280;57398;52.032;4.376;2024-02-04T09:54:59;100782.59;;;8.93;nan
70053;BME280;57398;52.032;4.376;2024-02-04T09:57:48;100788.94;;;8.91;nan
70053;BME280;57398;52.032;4.376;2024-02-04T10:00:38;100780.00;;;8.93;nan
70053;BME280;57398;52.032;4.376;2024-02-04T10:03:27;100785.75;;;8.95;nan
70053;BME280;57398;52.032;4.376;2024-02-04T10:06:16;100775.38;;;8.95;nan
70053;BME280;57398;52.032;4.376;2024-02-04T10:09:05;100774.97;;;8.98;nan
70053;BME280;57398;52.032;4.376;2024-02-04T10:11:54;100766.56;;;9.03;nan
70053;BME280;57398;52.032;4.376;2024-02-04T10:14:42;100763.56;;;9.06;nan
70053;BME280;57398;52.032;4.376;2024-02-04T10:17:31;100767.13;;;9.12;nan
70053;BME280;57398;52.032;4.376;2024-02-04T10:20:20;100752.31;;;9.19;nan
70053;BME280;57398;52.032;4.376;2024-02-04T10:23:08;100754.63;;;9.27;nan
70053;BME280;57398;52.032;4.376;2024-02-04T10:25:59;100746.03;;;9.33;nan
70053;BME280;57398;52.032;4.376;2024-02-04T10:28:51;100798.03;;;9.38;nan
70053;BME280;57398;52.032;4.376;2024-02-04T10:31:40;100748.34;;;9.41;nan
70053;BME280;57398;52.032;4.376;2024-02-04T10:34:29;100756.50;;;9.45;nan
70053;BME280;57398;52.032;4.376;2024-02-04T10:37:18;100744.50;;;9.51;nan
70053;BME280;57398;52.032;4.376;2024-02-04T10:40:07;100737.06;;;9.54;nan
70053;BME280;57398;52.032;4.376;2024-02-04T10:43:00;100744.63;;;9.56;nan
70053;BME280;57398;52.032;4.376;2024-02-04T10:45:55;100740.63;;;9.60;nan
70053;BME280;57398;52.032;4.376;2024-02-04T10:48:48;100753.88;;;9.70;nan
70053;BME280;57398;52.032;4.376;2024-02-04T10:51:41;100739.47;;;9.74;nan
70053;BME280;57398;52.032;4.376;2024-02-04T10:54:30;100716.28;;;9.79;nan
70053;BME280;57398;52.032;4.376;2024-02-04T10:57:21;100705.25;;;9.84;nan
70053;BME280;57398;52.032;4.376;2024-02-04T11:00:11;100725.22;;;9.83;nan
70053;BME280;57398;52.032;4.376;2024-02-04T11:03:00;100720.66;;;9.79;nan
70053;BME280;57398;52.032;4.376;2024-02-04T11:05:50;100706.34;;;9.76;nan
70053;BME280;57398;52.032;4.376;2024-02-04T11:08:40;100712.69;;;9.80;nan
70053;BME280;57398;52.032;4.376;2024-02-04T11:11:29;100718.22;;;9.84;nan
70053;BME280;57398;52.032;4.376;2024-02-04T11:14:20;100698.19;;;9.91;nan
70053;BME280;57398;52.032;4.376;2024-02-04T11:17:28;100690.31;;;9.98;nan
70053;BME280;57398;52.032;4.376;2024-02-04T11:20:44;100670.50;;;10.03;nan
70053;BME280;57398;52.032;4.376;2024-02-04T11:23:48;100658.91;;;10.06;nan
70053;BME280;57398;52.032;4.376;2024-02-04T11:26:40;100636.69;;;10.10;nan
70053;BME280;57398;52.032;4.376;2024-02-04T11:29:29;100607.91;;;10.12;nan
70053;BME280;57398;52.032;4.376;2024-02-04T11:32:18;100565.00;;;10.09;nan
70053;BME280;57398;52.032;4.376;2024-02-04T11:35:08;100524.44;;;10.15;nan
70053;BME280;57398;52.032;4.376;2024-02-04T11:37:59;100489.88;;;10.14;nan
70053;BME280;57398;52.032;4.376;2024-02-04T11:40:48;100451.28;;;10.18;nan
70053;BME280;57398;52.032;4.376;2024-02-04T11:43:39;100396.44;;;10.26;nan
70053;BME280;57398;52.032;4.376;2024-02-04T11:46:28;100352.78;;;10.35;nan
70053;BME280;57398;52.032;4.376;2024-02-04T11:49:24;100306.13;;;10.40;nan
70053;BME280;57398;52.032;4.376;2024-02-04T11:52:21;100293.06;;;10.35;nan
70053;BME280;57398;52.032;4.376;2024-02-04T11:55:14;100283.94;;;10.32;nan
70053;BME280;57398;52.032;4.376;2024-02-04T11:58:05;100291.59;;;10.39;nan
70053;BME280;57398;52.032;4.376;2024-02-04T12:00:56;100299.50;;;10.20;nan
70053;BME280;57398;52.032;4.376;2024-02-04T12:03:45;100304.25;;;10.12;nan
70053;BME280;57398;52.032;4.376;2024-02-04T12:06:33;100334.25;;;10.07;nan
70053;BME280;57398;52.032;4.376;2024-02-04T12:12:10;100342.16;;;10.24;nan
70053;BME280;57398;52.032;4.376;2024-02-04T12:15:00;100377.25;;;10.27;nan
70053;BME280;57398;52.032;4.376;2024-02-04T12:17:51;100420.16;;;10.30;nan
70053;BME280;57398;52.032;4.376;2024-02-04T12:20:40;100541.16;;;10.31;nan
70053;BME280;57398;52.032;4.376;2024-02-04T12:23:28;100776.03;;;10.28;nan
70053;BME280;57398;52.032;4.376;2024-02-04T12:26:19;100978.25;;;10.43;nan
70053;BME280;57398;52.032;4.376;2024-02-04T12:29:08;101250.31;;;10.47;nan
70053;BME280;57398;52.032;4.376;2024-02-04T12:32:01;101373.19;;;10.48;nan
70053;BME280;57398;52.032;4.376;2024-02-04T12:34:50;101449.13;;;10.43;nan
70053;BME280;57398;52.032;4.376;2024-02-04T12:40:37;101512.25;;;10.51;nan
70053;BME280;57398;52.032;4.376;2024-02-04T12:43:25;101566.78;;;10.44;nan
70053;BME280;57398;52.032;4.376;2024-02-04T12:46:13;101604.53;;;10.40;nan
70053;BME280;57398;52.032;4.376;2024-02-04T12:49:03;101607.34;;;10.32;nan
70053;BME280;57398;52.032;4.376;2024-02-04T12:52:03;101636.31;;;10.29;nan
70053;BME280;57398;52.032;4.376;2024-02-04T12:54:52;101622.31;;;10.30;nan
70053;BME280;57398;52.032;4.376;2024-02-04T12:57:41;101612.47;;;10.25;nan
70053;BME280;57398;52.032;4.376;2024-02-04T13:03:18;101640.03;;;10.19;nan
70053;BME280;57398;52.032;4.376;2024-02-04T13:06:09;101642.44;;;10.27;nan
70053;BME280;57398;52.032;4.376;2024-02-04T13:08:57;101645.81;;;10.21;nan
70053;BME280;57398;52.032;4.376;2024-02-04T13:11:47;101631.25;;;10.20;nan
70053;BME280;57398;52.032;4.376;2024-02-04T13:14:35;101638.25;;;10.26;nan
70053;BME280;57398;52.032;4.376;2024-02-04T13:17:24;101630.72;;;10.32;nan
70053;BME280;57398;52.032;4.376;2024-02-04T13:20:12;101661.47;;;10.35;nan
70053;BME280;57398;52.032;4.376;2024-02-04T13:23:02;101698.03;;;10.33;nan
70053;BME280;57398;52.032;4.376;2024-02-04T13:25:52;101712.00;;;10.32;nan
70053;BME280;57398;52.032;4.376;2024-02-04T13:28:41;101730.38;;;10.31;nan
70053;BME280;57398;52.032;4.376;2024-02-04T13:31:29;101741.97;;;10.35;nan
70053;BME280;57398;52.032;4.376;2024-02-04T13:34:18;101741.59;;;10.38;nan
70053;BME280;57398;52.032;4.376;2024-02-04T13:37:07;101791.75;;;10.38;nan
70053;BME280;57398;52.032;4.376;2024-02-04T13:39:57;101771.00;;;10.45;nan
70053;BME280;57398;52.032;4.376;2024-02-04T13:42:46;101798.31;;;10.34;nan
70053;BME280;57398;52.032;4.376;2024-02-04T13:45:35;101773.53;;;10.32;nan
70053;BME280;57398;52.032;4.376;2024-02-04T13:48:23;101764.28;;;10.22;nan
70053;BME280;57398;52.032;4.376;2024-02-04T13:51:12;101760.06;;;10.15;nan
70053;BME280;57398;52.032;4.376;2024-02-04T13:54:03;101765.63;;;10.12;nan
70053;BME280;57398;52.032;4.376;2024-02-04T13:56:53;101754.63;;;10.10;nan
70053;BME280;57398;52.032;4.376;2024-02-04T13:59:41;101736.22;;;10.04;nan
70053;BME280;57398;52.032;4.376;2024-02-04T14:02:30;101741.03;;;10.07;nan
70053;BME280;57398;52.032;4.376;2024-02-04T14:05:19;101740.00;;;10.02;nan
70053;BME280;57398;52.032;4.376;2024-02-04T14:08:07;101740.19;;;10.00;nan
70053;BME280;57398;52.032;4.376;2024-02-04T14:10:56;101731.41;;;9.95;nan
70053;BME280;57398;52.032;4.376;2024-02-04T14:13:46;101732.16;;;9.89;nan
70053;BME280;57398;52.032;4.376;2024-02-04T14:16:34;101714.41;;;9.92;nan
70053;BME280;57398;52.032;4.376;2024-02-04T14:19:22;101707.38;;;9.86;nan
70053;BME280;57398;52.032;4.376;2024-02-04T14:22:11;101697.75;;;9.80;nan
70053;BME280;57398;52.032;4.376;2024-02-04T14:24:59;101705.16;;;9.76;nan
70053;BME280;57398;52.032;4.376;2024-02-04T14:27:47;101689.34;;;9.71;nan
70053;BME280;57398;52.032;4.376;2024-02-04T14:30:37;101681.75;;;9.70;nan
70053;BME280;57398;52.032;4.376;2024-02-04T14:33:26;101665.16;;;9.64;nan
70053;BME280;57398;52.032;4.376;2024-02-04T14:36:14;101644.56;;;9.56;nan
70053;BME280;57398;52.032;4.376;2024-02-04T14:39:02;101649.75;;;9.56;nan
70053;BME280;57398;52.032;4.376;2024-02-04T14:41:52;101607.25;;;9.57;nan
70053;BME280;57398;52.032;4.376;2024-02-04T14:44:41;101596.88;;;9.57;nan
70053;BME280;57398;52.032;4.376;2024-02-04T14:47:31;101573.53;;;9.57;nan
70053;BME280;57398;52.032;4.376;2024-02-04T14:50:19;101561.56;;;9.56;nan
70053;BME280;57398;52.032;4.376;2024-02-04T14:53:08;101559.38;;;9.59;nan
70053;BME280;57398;52.032;4.376;2024-02-04T14:55:56;101555.78;;;9.60;nan
70053;BME280;57398;52.032;4.376;2024-02-04T14:58:44;101566.19;;;9.60;nan
70053;BME280;57398;52.032;4.376;2024-02-04T15:01:33;101562.38;;;9.63;nan
70053;BME280;57398;52.032;4.376;2024-02-04T15:04:23;101598.09;;;9.61;nan
70053;BME280;57398;52.032;4.376;2024-02-04T15:07:15;101598.09;;;9.61;nan
70053;BME280;57398;52.032;4.376;2024-02-04T15:10:07;101614.84;;;9.58;nan
70053;BME280;57398;52.032;4.376;2024-02-04T15:12:57;101602.28;;;9.55;nan
70053;BME280;57398;52.032;4.376;2024-02-04T15:15:46;101603.06;;;9.56;nan
70053;BME280;57398;52.032;4.376;2024-02-04T15:18:35;101622.59;;;9.52;nan
70053;BME280;57398;52.032;4.376;2024-02-04T15:21:25;101658.91;;;9.52;nan
70053;BME280;57398;52.032;4.376;2024-02-04T15:24:14;101681.44;;;9.51;nan
70053;BME280;57398;52.032;4.376;2024-02-04T15:27:03;101689.41;;;9.50;nan
70053;BME280;57398;52.032;4.376;2024-02-04T15:29:54;101673.22;;;9.48;nan
70053;BME280;57398;52.032;4.376;2024-02-04T15:32:45;101660.22;;;9.41;nan
70053;BME280;57398;52.032;4.376;2024-02-04T15:35:36;101671.38;;;9.35;nan
70053;BME280;57398;52.032;4.376;2024-02-04T15:38:26;101663.34;;;9.30;nan
70053;BME280;57398;52.032;4.376;2024-02-04T15:41:15;101669.09;;;9.25;nan
70053;BME280;57398;52.032;4.376;2024-02-04T15:46:52;101633.19;;;9.22;nan
70053;BME280;57398;52.032;4.376;2024-02-04T15:49:42;101620.19;;;9.15;nan
70053;BME280;57398;52.032;4.376;2024-02-04T15:52:31;101595.06;;;9.16;nan